Time;durP1;ratioP1;P1;durP2;ratioP2;P2;SDS_P1;SDS_P2;PMS_P1;PMS_P2;Temp;Humidity;BMP_temperature;BMP_pressure;BME280_temperature;BME280_humidity;BME280_pressure;Samples;Min_cycle;Max_cycle;Signal;HPM_P1;HPM_P2
2022/08/08 00:02:31;;;;;;;3.67;1.20;;;12.90;99.90;;;;;;5102062;28;20130;-63
2022/08/08 00:05:05;;;;;;;4.70;1.33;;;12.80;99.90;;;;;;5102521;28;20040;-63
2022/08/08 00:07:49;;;;;;;2.08;1.58;;;12.80;99.90;;;;;;5102240;28;20075;-63
2022/08/08 00:10:40;;;;;;;4.15;1.38;;;12.70;99.90;;;;;;5102266;28;20068;-64
2022/08/08 00:13:29;;;;;;;4.28;1.30;;;12.70;99.90;;;;;;5102355;28;20043;-64
2022/08/08 00:16:06;;;;;;;4.68;1.40;;;12.80;99.90;;;;;;5099655;28;20036;-63
2022/08/08 00:18:50;;;;;;;;;;;12.70;99.90;;;;;;5090907;28;20036;-64
2022/08/08 00:21:20;;;;;;;2.95;1.45;;;12.70;99.90;;;;;;5089137;28;19912;-63
2022/08/08 00:23:51;;;;;;;3.53;1.50;;;12.60;99.90;;;;;;5088405;28;20075;-63
2022/08/08 00:26:23;;;;;;;2.35;1.30;;;12.60;99.90;;;;;;5088468;28;20734;-63
2022/08/08 00:28:53;;;;;;;3.70;1.38;;;12.60;99.90;;;;;;5087278;28;20086;-64
2022/08/08 00:31:28;;;;;;;4.47;1.20;;;12.60;99.90;;;;;;5088588;28;20111;-63
2022/08/08 00:37:04;;;;;;;6.00;1.42;;;12.60;99.90;;;;;;5068411;28;20127;-62
2022/08/08 00:39:52;;;;;;;3.83;1.58;;;12.50;99.90;;;;;;5068241;28;20040;-64
2022/08/08 00:42:46;;;;;;;2.05;1.55;;;12.50;99.90;;;;;;5088169;28;20607;-63
2022/08/08 00:45:41;;;;;;;3.83;1.33;;;12.50;99.90;;;;;;5086450;28;20119;-64
2022/08/08 00:48:31;;;;;;;3.17;1.50;;;12.50;99.90;;;;;;5083565;28;20044;-63
2022/08/08 00:51:17;;;;;;;2.20;1.42;;;12.40;99.90;;;;;;5088459;28;20055;-63
2022/08/08 00:54:03;;;;;;;3.65;1.70;;;12.30;99.90;;;;;;5087837;28;20032;-63
2022/08/08 00:56:56;;;;;;;1.97;1.57;;;12.40;99.90;;;;;;5083793;28;20052;-63
2022/08/08 00:59:40;;;;;;;1.60;1.27;;;12.40;99.90;;;;;;5067563;28;20040;-63
2022/08/08 01:02:44;;;;;;;7.53;1.80;;;12.30;99.90;;;;;;5086809;28;20622;-64
2022/08/08 01:06:02;;;;;;;3.40;1.55;;;12.20;99.90;;;;;;5087684;28;20032;-63
2022/08/08 01:08:49;;;;;;;2.58;1.48;;;12.20;99.90;;;;;;5084509;28;20127;-63
2022/08/08 01:11:45;;;;;;;3.00;1.60;;;12.20;99.90;;;;;;5082197;28;20032;-64
2022/08/08 01:14:29;;;;;;;3.63;1.50;;;12.20;99.90;;;;;;5088100;28;20044;-63
2022/08/08 01:17:06;;;;;;;2.88;1.30;;;12.10;99.90;;;;;;5086916;28;20403;-63
2022/08/08 01:19:47;;;;;;;3.70;1.42;;;12.10;99.90;;;;;;5087492;28;20097;-63
2022/08/08 01:22:48;;;;;;;2.10;1.38;;;12.10;99.90;;;;;;5075217;28;20040;-64
2022/08/08 01:25:38;;;;;;;4.65;1.50;;;12.10;99.90;;;;;;5067199;28;20415;-64
2022/08/08 01:28:19;;;;;;;5.25;1.55;;;12.00;99.90;;;;;;5087434;28;20036;-63
2022/08/08 01:31:24;;;;;;;1.90;1.55;;;12.00;99.90;;;;;;5086591;28;20043;-63
2022/08/08 01:34:03;;;;;;;8.68;1.50;;;12.00;99.90;;;;;;5087404;28;20044;-64
2022/08/08 01:36:56;;;;;;;6.63;2.08;;;12.00;99.90;;;;;;5086998;28;20747;-63
2022/08/08 01:40:12;;;;;;;2.63;1.48;;;12.00;99.90;;;;;;5087290;28;20032;-63
2022/08/08 01:43:05;;;;;;;5.18;1.60;;;12.00;99.90;;;;;;5081424;28;20052;-64
2022/08/08 01:45:49;;;;;;;2.50;1.42;;;12.00;99.90;;;;;;5072447;28;20515;-65
2022/08/08 01:48:54;;;;;;;2.10;1.45;;;11.90;99.90;;;;;;5080918;28;20032;-65
2022/08/08 01:51:29;;;;;;;3.15;1.58;;;11.90;99.90;;;;;;5074333;28;20032;-64
2022/08/08 01:54:10;;;;;;;3.05;1.80;;;11.90;99.90;;;;;;5086784;28;20101;-65
2022/08/08 01:56:50;;;;;;;3.50;1.52;;;11.90;99.90;;;;;;5081858;28;20044;-65
2022/08/08 01:59:22;;;;;;;2.10;1.48;;;11.90;99.90;;;;;;5086649;28;20043;-64
2022/08/08 02:02:29;;;;;;;3.70;1.80;;;11.80;99.90;;;;;;5086525;28;20044;-64
2022/08/08 02:05:08;;;;;;;4.75;1.55;;;11.80;99.90;;;;;;5048203;28;20583;-64
2022/08/08 02:08:10;;;;;;;4.70;1.90;;;11.80;99.90;;;;;;5081499;28;20101;-65
2022/08/08 02:11:03;;;;;;;1.90;1.63;;;11.80;99.90;;;;;;5087296;28;20076;-65
2022/08/08 02:13:37;;;;;;;6.03;1.70;;;11.70;99.90;;;;;;5086003;28;20036;-64
2022/08/08 02:16:19;;;;;;;4.60;1.80;;;11.70;99.90;;;;;;5084424;28;20036;-64
2022/08/08 02:19:18;;;;;;;3.35;1.20;;;11.70;99.90;;;;;;5084626;28;20039;-64
2022/08/08 02:24:52;;;;;;;2.72;1.60;;;11.70;99.90;;;;;;5087124;28;20036;-64
2022/08/08 02:27:33;;;;;;;3.25;1.58;;;11.60;99.90;;;;;;5086224;28;20048;-64
2022/08/08 02:30:25;;;;;;;5.35;1.60;;;11.60;99.90;;;;;;5086538;28;20041;-64
2022/08/08 02:33:14;;;;;;;2.95;1.90;;;11.60;99.90;;;;;;5086375;28;20044;-64
2022/08/08 02:36:08;;;;;;;3.13;1.77;;;11.60;99.90;;;;;;5086547;28;20052;-64
2022/08/08 02:39:00;;;;;;;4.65;1.80;;;11.60;99.90;;;;;;5041899;28;20781;-65
2022/08/08 02:41:54;;;;;;;6.05;1.48;;;11.50;99.90;;;;;;5065935;28;20047;-64
2022/08/08 02:44:38;;;;;;;3.85;1.60;;;11.50;99.90;;;;;;5081296;28;20040;-64
2022/08/08 02:47:41;;;;;;;6.43;1.98;;;11.50;99.90;;;;;;5078089;28;20040;-65
2022/08/08 02:50:12;;;;;;;2.70;1.90;;;11.40;99.90;;;;;;5084687;28;20055;-65
2022/08/08 02:52:57;;;;;;;3.45;1.50;;;11.40;99.90;;;;;;5085852;28;20509;-64
2022/08/08 02:55:37;;;;;;;4.28;2.20;;;11.40;99.90;;;;;;5085823;28;20086;-64
2022/08/08 02:58:36;;;;;;;3.15;2.10;;;11.30;99.90;;;;;;5079146;28;20043;-65
2022/08/08 03:01:27;;;;;;;3.53;1.92;;;11.40;99.90;;;;;;5085655;28;20032;-64
2022/08/08 03:04:25;;;;;;;2.80;1.65;;;11.30;99.90;;;;;;5081572;28;20710;-64
2022/08/08 03:07:24;;;;;;;3.78;1.73;;;11.30;99.90;;;;;;5085534;28;20063;-64
2022/08/08 03:10:32;;;;;;;3.42;1.55;;;11.30;99.90;;;;;;5065721;28;20528;-64
2022/08/08 03:13:40;;;;;;;3.90;1.80;;;11.20;99.90;;;;;;5039791;28;20158;-65
2022/08/08 03:16:39;;;;;;;8.23;1.60;;;11.30;99.90;;;;;;5083451;28;20067;-64
2022/08/08 03:19:16;;;;;;;2.38;1.65;;;11.30;99.90;;;;;;5082545;28;20040;-64
2022/08/08 03:21:42;;;;;;;6.13;1.67;;;11.30;99.90;;;;;;5064855;28;20040;-65
2022/08/08 03:24:07;;;;;;;;;;;11.20;99.90;;;;;;5082440;28;20043;-65
2022/08/08 03:26:38;;;;;;;4.22;1.80;;;11.20;99.90;;;;;;5085926;28;19979;-65
2022/08/08 03:29:08;;;;;;;3.25;1.73;;;11.20;99.90;;;;;;5084907;28;20047;-64
2022/08/08 03:34:18;;;;;;;6.78;2.00;;;11.10;99.90;;;;;;5086283;28;20044;-65
2022/08/08 03:36:43;;;;;;;;;;;11.10;99.90;;;;;;5085544;28;20047;-64
2022/08/08 03:39:13;;;;;;;1.65;1.30;;;11.10;99.90;;;;;;5085062;28;19922;-64
2022/08/08 03:41:40;;;;;;;5.50;1.70;;;11.10;99.90;;;;;;5085599;28;20055;-64
2022/08/08 03:44:06;;;;;;;2.75;1.70;;;11.10;99.90;;;;;;5086424;28;20042;-64
2022/08/08 03:46:49;;;;;;;2.20;1.52;;;11.10;99.90;;;;;;5083195;28;20046;-64
2022/08/08 03:49:23;;;;;;;4.38;1.77;;;11.10;99.90;;;;;;5079157;28;20464;-63
2022/08/08 03:51:53;;;;;;;3.50;1.55;;;11.10;99.90;;;;;;5086206;28;20052;-65
2022/08/08 03:54:19;;;;;;;9.52;1.65;;;11.10;99.90;;;;;;5089633;28;20052;-64
2022/08/08 03:56:45;;;;;;;3.58;1.40;;;11.10;99.90;;;;;;5089374;28;20169;-64
2022/08/08 03:59:11;;;;;;;4.63;2.08;;;11.00;99.90;;;;;;5089964;28;20048;-63
2022/08/08 04:01:37;;;;;;;;;;;11.00;99.90;;;;;;5089432;28;20047;-62
2022/08/08 04:04:03;;;;;;;2.95;1.90;;;11.00;99.90;;;;;;5089521;28;19919;-61
2022/08/08 04:06:29;;;;;;;;;;;11.00;99.90;;;;;;5087191;28;20599;-64
2022/08/08 04:08:54;;;;;;;2.45;1.73;;;11.00;99.90;;;;;;5088944;28;19924;-64
2022/08/08 04:11:20;;;;;;;;;;;11.00;99.90;;;;;;5086339;28;20128;-65
2022/08/08 04:13:45;;;;;;;4.78;1.67;;;11.00;99.90;;;;;;5087322;28;20057;-64
2022/08/08 04:16:11;;;;;;;;;;;11.00;99.90;;;;;;5081015;28;20443;-64
2022/08/08 04:18:36;;;;;;;2.42;1.80;;;11.00;99.90;;;;;;5088677;28;19927;-64
2022/08/08 04:21:02;;;;;;;;;;;11.00;99.90;;;;;;5086291;28;20040;-64
2022/08/08 04:23:27;;;;;;;7.45;2.20;;;11.00;99.90;;;;;;5085259;28;19920;-65
2022/08/08 04:25:53;;;;;;;;;;;11.00;99.90;;;;;;5083600;28;20396;-66
2022/08/08 04:28:19;;;;;;;3.60;2.10;;;11.00;99.90;;;;;;5085739;28;19942;-64
2022/08/08 04:30:45;;;;;;;;;;;11.00;99.90;;;;;;5087609;28;20459;-64
2022/08/08 04:33:11;;;;;;;2.17;1.60;;;11.10;99.90;;;;;;5088256;28;19999;-64
2022/08/08 04:35:36;;;;;;;;;;;11.30;99.90;;;;;;5087085;28;20567;-64
2022/08/08 04:38:02;;;;;;;2.55;1.60;;;12.00;99.90;;;;;;5087859;28;19920;-64
2022/08/08 04:40:27;;;;;;;;;;;12.00;99.90;;;;;;5080137;28;20066;-64
2022/08/08 04:42:53;;;;;;;4.10;1.80;;;11.80;99.90;;;;;;5087242;28;19978;-64
2022/08/08 04:45:18;;;;;;;;;;;11.80;99.90;;;;;;5082077;28;20125;-64
2022/08/08 04:47:44;;;;;;;4.88;1.73;;;11.80;99.90;;;;;;5086125;28;19967;-64
2022/08/08 04:50:09;;;;;;;;;;;11.80;99.90;;;;;;5088498;28;20475;-64
2022/08/08 04:52:35;;;;;;;4.57;1.67;;;12.00;99.90;;;;;;5088700;28;19916;-64
2022/08/08 04:55:01;;;;;;;;;;;12.10;99.90;;;;;;5088271;28;20036;-64
2022/08/08 04:57:26;;;;;;;3.38;1.85;;;12.10;99.90;;;;;;5087869;28;20574;-64
2022/08/08 04:59:52;;;;;;;;;;;12.20;99.90;;;;;;5088331;28;20458;-64
2022/08/08 05:02:17;;;;;;;6.00;1.40;;;12.40;99.90;;;;;;5087313;28;19920;-64
2022/08/08 05:04:43;;;;;;;;;;;12.60;99.90;;;;;;5085288;28;20032;-63
2022/08/08 05:07:09;;;;;;;4.38;1.70;;;12.60;99.90;;;;;;5086217;28;19977;-64
2022/08/08 05:09:34;;;;;;;;;;;12.60;99.90;;;;;;5087992;28;20064;-64
2022/08/08 05:12:02;;;;;;;4.60;1.92;;;12.70;99.90;;;;;;5083650;28;19920;-64
2022/08/08 05:14:28;;;;;;;9.20;1.70;;;12.70;99.90;;;;;;5087236;28;20135;-65
2022/08/08 05:16:54;;;;;;;3.30;1.90;;;12.70;99.90;;;;;;5080823;28;20135;-65
2022/08/08 05:19:19;;;;;;;;;;;12.60;99.90;;;;;;5088700;28;20123;-65
2022/08/08 05:21:45;;;;;;;3.05;2.00;;;12.70;99.90;;;;;;5087652;28;19963;-66
2022/08/08 05:24:11;;;;;;;;;;;12.70;99.90;;;;;;5088347;28;20039;-66
2022/08/08 05:26:40;;;;;;;4.03;1.88;;;12.70;99.90;;;;;;5067033;28;19924;-65
2022/08/08 05:29:07;;;;;;;2.72;1.60;;;13.00;99.90;;;;;;5067649;28;20127;-65
2022/08/08 05:31:36;;;;;;;1.67;1.33;;;13.30;99.90;;;;;;5085572;28;20125;-66
2022/08/08 05:34:04;;;;;;;8.05;1.80;;;13.40;99.90;;;;;;5067064;28;20076;-67
2022/08/08 05:36:34;;;;;;;3.25;2.05;;;13.50;99.90;;;;;;5084524;28;20123;-65
2022/08/08 05:39:03;;;;;;;3.25;1.35;;;13.50;99.90;;;;;;5087156;28;20044;-65
2022/08/08 05:41:32;;;;;;;7.43;2.00;;;13.60;99.90;;;;;;5083751;28;20133;-65
2022/08/08 05:44:12;;;;;;;4.18;1.73;;;13.60;99.90;;;;;;5087741;28;20051;-64
2022/08/08 05:46:40;;;;;;;4.93;1.45;;;13.60;99.90;;;;;;5084246;28;20056;-60
2022/08/08 05:49:07;;;;;;;4.38;1.60;;;13.80;99.90;;;;;;5086586;28;20044;-60
2022/08/08 05:51:33;;;;;;;3.25;1.38;;;13.90;99.90;;;;;;5087515;28;20074;-59
2022/08/08 05:53:59;;;;;;;4.03;1.35;;;14.00;99.90;;;;;;5086614;28;20040;-62
2022/08/08 05:56:26;;;;;;;;;;;14.10;99.90;;;;;;5086139;28;20396;-64
2022/08/08 05:59:01;;;;;;;8.27;2.13;;;14.30;99.90;;;;;;5085351;28;19920;-63
2022/08/08 06:01:26;;;;;;;5.22;1.60;;;14.40;99.90;;;;;;5082956;28;20040;-63
2022/08/08 06:03:53;;;;;;;;;;;14.50;99.90;;;;;;5083851;28;20059;-62
2022/08/08 06:06:24;;;;;;;2.80;1.48;;;14.70;99.90;;;;;;5080632;28;19930;-67
2022/08/08 06:08:51;;;;;;;5.15;1.60;;;14.80;99.90;;;;;;5083758;28;20056;-65
2022/08/08 06:11:18;;;;;;;5.45;1.73;;;14.90;99.90;;;;;;5084781;28;20090;-66
2022/08/08 06:13:46;;;;;;;7.00;1.42;;;15.00;99.90;;;;;;5085121;28;20147;-67
2022/08/08 06:16:12;;;;;;;10.20;2.00;;;15.10;99.90;;;;;;5080722;28;20036;-66
2022/08/08 06:18:40;;;;;;;2.20;1.40;;;15.10;99.90;;;;;;5081690;28;20089;-66
2022/08/08 06:21:07;;;;;;;8.75;1.70;;;15.20;99.90;;;;;;5078962;28;20132;-67
2022/08/08 06:23:33;;;;;;;3.00;1.13;;;15.50;99.90;;;;;;5065969;28;20055;-66
2022/08/08 06:26:05;;;;;;;;;;;15.90;99.90;;;;;;5072648;28;20048;-65
2022/08/08 06:28:33;;;;;;;3.60;1.40;;;16.20;99.90;;;;;;5086776;28;19959;-67
2022/08/08 06:31:05;;;;;;;2.17;1.48;;;16.50;99.90;;;;;;5085579;28;20028;-66
2022/08/08 06:33:55;;;;;;;3.17;1.38;;;16.80;99.90;;;;;;5085670;28;20047;-67
2022/08/08 06:36:30;;;;;;;2.65;1.45;;;16.80;99.80;;;;;;5085558;28;20381;-66
2022/08/08 06:38:58;;;;;;;6.22;1.63;;;16.80;99.90;;;;;;5086730;28;20044;-67
2022/08/08 06:41:25;;;;;;;5.07;1.80;;;16.80;99.90;;;;;;5082390;28;20032;-67
2022/08/08 06:43:56;;;;;;;2.40;1.27;;;16.70;99.90;;;;;;5085857;28;20114;-66
2022/08/08 06:46:21;;;;;;;6.35;1.48;;;16.80;99.90;;;;;;5086099;28;20568;-67
2022/08/08 06:48:47;;;;;;;;;;;17.00;99.10;;;;;;5069110;28;20119;-66
2022/08/08 06:51:15;;;;;;;5.50;1.13;;;17.40;99.00;;;;;;5085829;28;20404;-67
2022/08/08 06:53:41;;;;;;;2.67;1.25;;;17.70;98.90;;;;;;5085494;28;20054;-67
2022/08/08 06:56:10;;;;;;;;;;;18.00;98.90;;;;;;5082656;28;20044;-66
2022/08/08 06:58:36;;;;;;;2.33;1.10;;;18.10;97.30;;;;;;5083665;28;20346;-66
2022/08/08 07:01:02;;;;;;;;;;;18.00;97.80;;;;;;5085870;28;20122;-67
2022/08/08 07:03:46;;;;;;;2.75;1.15;;;18.10;98.00;;;;;;5084356;28;19919;-67
2022/08/08 07:06:15;;;;;;;4.15;1.20;;;18.10;97.00;;;;;;5073007;28;20100;-65
2022/08/08 07:08:46;;;;;;;10.10;7.13;;;18.10;96.80;;;;;;5081898;28;20096;-65
2022/08/08 07:11:16;;;;;;;6.05;3.17;;;18.50;96.30;;;;;;5079759;28;20115;-66
2022/08/08 07:13:43;;;;;;;2.20;1.25;;;18.80;95.60;;;;;;5083754;28;20094;-66
2022/08/08 07:16:21;;;;;;;2.08;1.10;;;19.00;95.70;;;;;;5076425;28;20058;-66
2022/08/08 07:18:53;;;;;;;1.58;1.02;;;18.90;95.70;;;;;;5077655;28;20608;-65
2022/08/08 07:21:22;;;;;;;3.55;1.35;;;18.90;95.30;;;;;;5079983;28;20044;-66
2022/08/08 07:24:04;;;;;;;4.43;1.05;;;19.20;94.20;;;;;;5077755;28;20717;-65
2022/08/08 07:26:32;;;;;;;1.80;0.90;;;19.20;93.50;;;;;;5085006;28;20078;-66
2022/08/08 07:28:59;;;;;;;4.03;1.00;;;19.20;91.10;;;;;;5088650;28;20036;-65
2022/08/08 07:31:25;;;;;;;2.13;0.98;;;19.10;91.10;;;;;;5089516;28;20089;-65
2022/08/08 07:33:51;;;;;;;;;;;18.90;91.80;;;;;;5090432;28;20043;-66
2022/08/08 07:36:18;;;;;;;2.03;1.30;;;18.80;90.50;;;;;;5089606;28;20418;-66
2022/08/08 07:38:47;;;;;;;2.08;1.05;;;18.80;92.60;;;;;;5089059;28;20987;-66
2022/08/08 07:41:16;;;;;;;0.75;0.60;;;18.90;92.10;;;;;;5071289;28;20115;-65
2022/08/08 07:43:43;;;;;;;0.45;0.45;;;19.00;92.50;;;;;;5088120;28;20040;-66
2022/08/08 07:46:08;;;;;;;1.60;0.80;;;18.90;91.90;;;;;;5089026;28;20040;-65
2022/08/08 07:48:34;;;;;;;;;;;18.90;92.20;;;;;;5082750;28;20067;-70
2022/08/08 07:51:01;;;;;;;2.13;0.80;;;19.00;91.40;;;;;;5089257;28;19977;-67
2022/08/08 07:53:48;;;;;;;2.15;0.60;;;19.00;88.40;;;;;;5089290;28;20079;-66
2022/08/08 07:56:16;;;;;;;2.95;0.90;;;19.20;88.20;;;;;;5089452;28;20055;-67
2022/08/08 07:58:44;;;;;;;2.10;0.80;;;19.20;89.10;;;;;;5089217;28;20062;-67
2022/08/08 08:01:19;;;;;;;0.95;0.50;;;19.30;88.20;;;;;;5089003;28;20127;-67
2022/08/08 08:03:58;;;;;;;1.45;0.88;;;19.30;88.00;;;;;;5088842;28;20044;-66
2022/08/08 08:06:26;;;;;;;3.22;0.60;;;19.90;89.00;;;;;;5089225;28;20447;-66
2022/08/08 08:09:11;;;;;;;1.40;0.70;;;21.10;84.20;;;;;;5087683;28;20496;-66
2022/08/08 08:11:44;;;;;;;3.85;0.38;;;22.50;76.30;;;;;;5089055;28;20097;-65
2022/08/08 08:14:16;;;;;;;2.15;0.40;;;24.00;71.30;;;;;;5087270;28;20032;-67
2022/08/08 08:16:44;;;;;;;1.58;0.52;;;26.10;72.20;;;;;;5088640;28;20047;-66
2022/08/08 08:19:11;;;;;;;1.65;0.60;;;27.30;60.50;;;;;;5082081;28;20051;-67
2022/08/08 08:21:43;;;;;;;0.93;0.35;;;27.30;54.00;;;;;;5081902;28;20044;-66
2022/08/08 08:24:09;;;;;;;3.53;0.50;;;28.20;56.00;;;;;;5085441;28;20126;-67
2022/08/08 08:26:35;;;;;;;1.35;0.50;;;28.80;55.00;;;;;;5088988;28;20169;-66
2022/08/08 08:29:01;;;;;;;3.83;0.47;;;29.30;54.80;;;;;;5089378;28;20564;-66
2022/08/08 08:31:27;;;;;;;1.27;0.50;;;29.50;54.20;;;;;;5088399;28;20029;-67
2022/08/08 08:33:53;;;;;;;2.17;0.40;;;29.50;54.90;;;;;;5088201;28;20043;-67
2022/08/08 08:36:19;;;;;;;1.42;0.55;;;29.60;51.70;;;;;;5088626;28;20388;-67
2022/08/08 08:38:44;;;;;;;0.90;0.50;;;28.60;51.60;;;;;;5086311;28;20889;-67
2022/08/08 08:41:11;;;;;;;2.80;0.40;;;27.30;52.00;;;;;;5082174;28;20036;-66
2022/08/08 08:43:40;;;;;;;0.77;0.43;;;27.30;55.00;;;;;;5088063;28;20036;-67
2022/08/08 08:46:10;;;;;;;4.10;1.00;;;26.70;59.10;;;;;;5088231;28;20050;-67
2022/08/08 08:48:37;;;;;;;1.33;0.40;;;25.70;56.50;;;;;;5076708;28;20112;-67
2022/08/08 08:51:04;;;;;;;4.10;0.52;;;25.00;57.30;;;;;;5087851;28;20048;-66
2022/08/08 08:53:36;;;;;;;1.60;0.57;;;24.40;62.60;;;;;;5088642;28;20165;-66
2022/08/08 08:56:02;;;;;;;1.10;0.50;;;23.70;61.10;;;;;;5088089;28;20047;-66
2022/08/08 08:58:40;;;;;;;1.15;0.50;;;23.50;62.70;;;;;;5088508;28;20036;-66
2022/08/08 09:01:11;;;;;;;0.57;0.50;;;23.00;61.10;;;;;;5086820;28;20039;-67
2022/08/08 09:03:40;;;;;;;1.50;0.70;;;22.60;60.80;;;;;;5087125;28;20108;-65
2022/08/08 09:06:12;;;;;;;2.45;0.90;;;22.40;68.00;;;;;;5080398;28;20050;-66
2022/08/08 09:08:42;;;;;;;2.20;0.73;;;22.20;68.20;;;;;;5086616;28;20047;-65
2022/08/08 09:11:08;;;;;;;5.65;0.75;;;22.10;65.40;;;;;;5083618;28;20088;-66
2022/08/08 09:13:38;;;;;;;5.63;0.60;;;22.30;63.90;;;;;;5076698;28;20169;-66
2022/08/08 09:16:04;;;;;;;1.77;0.73;;;22.20;65.40;;;;;;5074459;28;20493;-66
2022/08/08 09:18:30;;;;;;;0.50;0.50;;;22.20;67.50;;;;;;5073162;28;20039;-66
2022/08/08 09:20:57;;;;;;;0.60;0.50;;;22.30;64.50;;;;;;5085585;28;20039;-66
2022/08/08 09:23:24;;;;;;;1.30;0.50;;;22.50;62.20;;;;;;5082799;28;20046;-66
2022/08/08 09:25:56;;;;;;;1.08;0.50;;;22.50;63.90;;;;;;5087219;28;20042;-65
2022/08/08 09:28:27;;;;;;;3.50;0.57;;;22.20;71.30;;;;;;5087297;28;20044;-65
2022/08/08 09:31:01;;;;;;;2.53;0.60;;;22.20;63.50;;;;;;5086902;28;20036;-66
2022/08/08 09:33:30;;;;;;;1.35;0.88;;;22.20;68.80;;;;;;5086848;28;20036;-67
2022/08/08 09:35:56;;;;;;;0.88;0.55;;;22.20;67.50;;;;;;5087294;28;20177;-66
2022/08/08 09:39:02;;;;;;;3.15;0.68;;;22.30;70.50;;;;;;5086782;28;20052;-65
2022/08/08 09:41:41;;;;;;;3.92;0.80;;;22.20;67.70;;;;;;5023808;28;20091;-66
2022/08/08 09:44:19;;;;;;;2.17;0.93;;;22.00;69.50;;;;;;5080354;28;20075;-67
2022/08/08 09:46:49;;;;;;;1.50;0.60;;;22.10;70.20;;;;;;5083440;28;20044;-67
2022/08/08 09:49:19;;;;;;;4.75;0.55;;;22.20;70.20;;;;;;5080664;28;20422;-66
2022/08/08 09:51:52;;;;;;;1.55;0.65;;;22.10;71.60;;;;;;5079709;28;20040;-66
2022/08/08 09:54:21;;;;;;;2.60;0.60;;;21.90;66.20;;;;;;5085410;28;20035;-66
2022/08/08 09:56:53;;;;;;;0.90;0.60;;;21.90;67.30;;;;;;5079877;28;20063;-67
2022/08/08 09:59:27;;;;;;;2.75;0.70;;;22.10;68.60;;;;;;5086786;28;20495;-67
2022/08/08 10:01:55;;;;;;;0.70;0.43;;;22.20;69.40;;;;;;5085687;28;20404;-62
2022/08/08 10:04:24;;;;;;;3.20;0.52;;;22.10;69.60;;;;;;5085043;28;20111;-65
2022/08/08 10:06:52;;;;;;;3.90;0.60;;;22.30;64.30;;;;;;5082905;28;20072;-60
2022/08/08 10:09:32;;;;;;;0.65;0.50;;;22.30;63.60;;;;;;5087040;28;20126;-64
2022/08/08 10:12:02;;;;;;;0.85;0.35;;;22.50;66.60;;;;;;5086853;28;20075;-65
2022/08/08 10:14:32;;;;;;;2.25;0.77;;;22.50;67.60;;;;;;5081916;28;20557;-68
2022/08/08 10:16:58;;;;;;;0.80;0.60;;;22.60;67.60;;;;;;5079840;28;20044;-67
2022/08/08 10:19:33;;;;;;;1.85;0.70;;;22.60;67.70;;;;;;5077389;28;20036;-67
2022/08/08 10:22:00;;;;;;;1.35;0.70;;;22.60;69.80;;;;;;5077166;28;20028;-67
2022/08/08 10:24:27;;;;;;;3.90;1.10;;;22.60;68.40;;;;;;5077301;28;20052;-65
2022/08/08 10:26:58;;;;;;;1.15;0.60;;;22.70;68.10;;;;;;5086116;28;20044;-64
2022/08/08 10:29:49;;;;;;;1.77;0.60;;;22.60;70.60;;;;;;5086129;28;20043;-65
2022/08/08 10:35:12;;;;;;;2.38;0.57;;;22.60;68.20;;;;;;5085783;28;20162;-66
2022/08/08 10:37:40;;;;;;;1.70;0.60;;;22.60;68.20;;;;;;5086855;28;20751;-65
2022/08/08 10:40:14;;;;;;;5.60;1.13;;;22.60;73.20;;;;;;5086328;28;20100;-65
2022/08/08 10:42:40;;;;;;;3.45;0.55;;;22.60;66.70;;;;;;5086424;28;20040;-65
2022/08/08 10:45:08;;;;;;;0.93;0.50;;;22.70;71.80;;;;;;5083041;28;20032;-64
2022/08/08 10:47:34;;;;;;;2.30;0.70;;;22.70;63.80;;;;;;5085939;28;20396;-64
2022/08/08 10:50:03;;;;;;;1.42;0.95;;;22.60;65.30;;;;;;5079195;28;20499;-64
2022/08/08 10:52:34;;;;;;;3.45;0.77;;;22.60;67.60;;;;;;5083641;28;20126;-64
2022/08/08 10:55:07;;;;;;;2.15;0.60;;;22.40;70.30;;;;;;5079190;28;20036;-65
2022/08/08 10:57:46;;;;;;;1.90;0.63;;;22.40;70.50;;;;;;5082911;28;20872;-65
2022/08/08 11:00:19;;;;;;;0.75;0.65;;;22.50;69.70;;;;;;5085946;28;20035;-64
2022/08/08 11:02:44;;;;;;;1.52;0.65;;;22.80;69.00;;;;;;5080132;28;20052;-65
2022/08/08 11:05:12;;;;;;;1.38;0.77;;;22.80;67.40;;;;;;5085351;28;20079;-63
2022/08/08 11:07:39;;;;;;;7.88;0.95;;;22.80;68.10;;;;;;5085826;28;20216;-63
2022/08/08 11:10:10;;;;;;;1.83;1.08;;;22.70;70.80;;;;;;5086120;28;20119;-63
2022/08/08 11:12:46;;;;;;;2.58;0.70;;;22.70;69.10;;;;;;5084684;28;20040;-63
2022/08/08 11:15:14;;;;;;;5.45;0.65;;;22.70;66.70;;;;;;5084468;28;20043;-63
2022/08/08 11:17:40;;;;;;;1.17;0.63;;;22.70;69.10;;;;;;5083863;28;20059;-64
2022/08/08 11:20:11;;;;;;;1.38;0.63;;;22.70;64.10;;;;;;5078274;28;20122;-64
2022/08/08 11:22:38;;;;;;;1.63;0.60;;;23.00;67.70;;;;;;5069947;28;20063;-64
2022/08/08 11:25:10;;;;;;;3.40;0.70;;;22.90;68.70;;;;;;5069784;28;20068;-64
2022/08/08 11:27:36;;;;;;;1.48;0.68;;;23.00;65.50;;;;;;5064691;28;20045;-64
2022/08/08 11:30:07;;;;;;;2.55;0.85;;;23.00;65.20;;;;;;5065385;28;20512;-64
2022/08/08 11:32:38;;;;;;;2.63;0.95;;;23.00;66.00;;;;;;5084114;28;20040;-64
2022/08/08 11:35:07;;;;;;;2.78;0.70;;;22.80;65.30;;;;;;5085561;28;20040;-64
2022/08/08 11:37:34;;;;;;;1.40;0.60;;;22.80;65.90;;;;;;5084016;28;20052;-64
2022/08/08 11:40:02;;;;;;;3.55;0.70;;;22.80;64.80;;;;;;5085965;28;20039;-64
2022/08/08 11:42:28;;;;;;;1.05;0.70;;;23.00;63.40;;;;;;5085847;28;20097;-64
2022/08/08 11:44:54;;;;;;;1.95;0.60;;;23.00;66.30;;;;;;5086026;28;20043;-63
2022/08/08 11:47:22;;;;;;;0.77;0.55;;;23.30;63.70;;;;;;5085760;28;20492;-63
2022/08/08 11:49:53;;;;;;;1.98;0.95;;;23.40;62.90;;;;;;5079075;28;20032;-64
2022/08/08 11:52:20;;;;;;;5.10;0.65;;;23.40;64.40;;;;;;5080674;28;20032;-61
2022/08/08 11:54:46;;;;;;;7.10;0.77;;;23.20;68.40;;;;;;5080842;28;20523;-61
2022/08/08 11:57:17;;;;;;;6.40;0.60;;;23.20;64.90;;;;;;5082375;28;20093;-60
2022/08/08 11:59:58;;;;;;;2.70;0.65;;;23.10;62.50;;;;;;5081825;28;20048;-62
2022/08/08 12:02:26;;;;;;;3.60;0.70;;;23.10;62.00;;;;;;5081650;28;20040;-62
2022/08/08 12:05:09;;;;;;;3.92;0.47;;;23.10;63.30;;;;;;5085192;28;20115;-61
2022/08/08 12:07:52;;;;;;;1.58;0.80;;;23.20;63.80;;;;;;5084556;28;20048;-62
2022/08/08 12:10:22;;;;;;;3.10;0.75;;;23.20;62.50;;;;;;5083968;28;20070;-61
2022/08/08 12:13:00;;;;;;;8.82;0.70;;;23.10;69.30;;;;;;5082856;28;20063;-61
2022/08/08 12:15:31;;;;;;;1.35;0.50;;;23.10;65.60;;;;;;5089223;28;20134;-60
2022/08/08 12:17:56;;;;;;;1.83;0.70;;;23.30;63.60;;;;;;5086542;28;20048;-61
2022/08/08 12:20:22;;;;;;;2.92;0.60;;;23.40;63.30;;;;;;5082836;28;20069;-61
2022/08/08 12:22:52;;;;;;;1.08;0.70;;;23.50;63.50;;;;;;5082557;28;20036;-61
2022/08/08 12:25:23;;;;;;;1.80;0.70;;;23.60;63.60;;;;;;5087114;28;20112;-62
2022/08/08 12:27:50;;;;;;;1.58;0.80;;;23.60;59.30;;;;;;5085904;28;20047;-62
2022/08/08 12:30:16;;;;;;;0.77;0.55;;;23.60;60.80;;;;;;5087383;28;20046;-60
2022/08/08 12:32:44;;;;;;;3.67;0.60;;;23.70;63.90;;;;;;5078027;28;20036;-62
2022/08/08 12:35:20;;;;;;;1.52;0.80;;;23.80;59.80;;;;;;5075465;28;20039;-62
2022/08/08 12:38:04;;;;;;;3.00;1.30;;;23.80;61.20;;;;;;5082404;28;20047;-61
2022/08/08 12:40:49;;;;;;;2.05;1.15;;;23.70;61.80;;;;;;5078547;28;20481;-62
2022/08/08 12:43:26;;;;;;;1.20;0.70;;;23.70;62.80;;;;;;5074128;28;20037;-60
2022/08/08 12:45:52;;;;;;;3.60;1.20;;;24.00;65.00;;;;;;5076287;28;20087;-61
2022/08/08 12:48:26;;;;;;;2.55;1.05;;;24.20;65.40;;;;;;5076141;28;20504;-62
2022/08/08 12:50:54;;;;;;;2.58;1.25;;;24.10;63.80;;;;;;5074813;28;20089;-63
2022/08/08 12:53:26;;;;;;;1.67;0.90;;;24.20;63.90;;;;;;5078191;28;20059;-62
2022/08/08 12:55:57;;;;;;;6.35;1.02;;;24.20;65.40;;;;;;5079232;28;20078;-61
2022/08/08 12:58:24;;;;;;;5.05;1.13;;;24.10;65.20;;;;;;5078285;28;20523;-62
2022/08/08 13:00:50;;;;;;;6.45;1.10;;;23.90;62.20;;;;;;5087193;28;20043;-63
2022/08/08 13:03:23;;;;;;;6.45;1.30;;;23.90;63.80;;;;;;5088587;28;20828;-63
2022/08/08 13:05:49;;;;;;;2.33;1.30;;;23.80;66.20;;;;;;5079506;28;20044;-61
2022/08/08 13:08:23;;;;;;;4.60;1.27;;;23.80;63.60;;;;;;5082902;28;20064;-60
2022/08/08 13:10:54;;;;;;;2.97;0.93;;;23.90;65.10;;;;;;5070331;28;20066;-61
2022/08/08 13:13:28;;;;;;;2.63;1.10;;;24.00;68.30;;;;;;5083567;28;20043;-64
2022/08/08 13:15:53;;;;;;;8.38;1.17;;;24.00;66.50;;;;;;5081192;28;20044;-64
2022/08/08 13:18:20;;;;;;;1.90;0.95;;;23.90;66.90;;;;;;5087365;28;20644;-67
2022/08/08 13:20:46;;;;;;;2.08;1.00;;;23.90;65.10;;;;;;5087294;28;20066;-64
2022/08/08 13:23:18;;;;;;;3.35;1.15;;;23.90;65.60;;;;;;5081949;28;20036;-66
2022/08/08 13:25:45;;;;;;;3.13;1.50;;;23.90;71.30;;;;;;5087070;28;20043;-63
2022/08/08 13:28:10;;;;;;;3.38;1.10;;;23.90;69.50;;;;;;5087174;28;20117;-62
2022/08/08 13:30:36;;;;;;;3.47;1.67;;;23.80;69.40;;;;;;5079538;28;20064;-64
2022/08/08 13:33:03;;;;;;;6.95;1.05;;;23.90;71.00;;;;;;5085314;28;20099;-63
2022/08/08 13:35:29;;;;;;;3.40;0.93;;;24.00;66.20;;;;;;5085143;28;20039;-64
2022/08/08 13:38:03;;;;;;;3.70;1.60;;;23.90;67.80;;;;;;5081056;28;20051;-64